Time;durP1;ratioP1;P1;durP2;ratioP2;P2;SDS_P1;SDS_P2;PMS_P1;PMS_P2;Temp;Humidity;BMP_temperature;BMP_pressure;BME280_temperature;BME280_humidity;BME280_pressure;Samples;Min_cycle;Max_cycle;Signal;HPM_P1;HPM_P2
2022/08/27 00:00:12;;;;;;;20.20;18.05;;;;;;;;;;5088770;28;20371;-66
2022/08/27 00:02:37;;;;;;;18.70;16.83;;;;;;;;;;5088299;28;20473;-67
2022/08/27 00:05:03;;;;;;;22.70;17.08;;;;;;;;;;5068657;28;20127;-66
2022/08/27 00:07:29;;;;;;;18.98;17.10;;;;;;;;;;5064825;28;20032;-66
2022/08/27 00:09:55;;;;;;;18.00;16.13;;;;;;;;;;5067580;28;20035;-67
2022/08/27 00:12:20;;;;;;;18.52;16.52;;;;;;;;;;5071740;28;20032;-67
2022/08/27 00:14:46;;;;;;;18.83;16.92;;;;;;;;;;5066257;28;20036;-67
2022/08/27 00:17:12;;;;;;;17.95;16.10;;;;;;;;;;5066658;28;20038;-67
2022/08/27 00:19:39;;;;;;;18.13;15.65;;;;;;;;;;5075627;28;20043;-67
2022/08/27 00:22:06;;;;;;;17.73;15.82;;;;;;;;;;5077515;28;20040;-67
2022/08/27 00:24:32;;;;;;;17.33;15.63;;;;;;;;;;5067561;28;20039;-67
2022/08/27 00:26:58;;;;;;;20.10;17.25;;;;;;;;;;5076639;28;20032;-67
2022/08/27 00:29:25;;;;;;;18.50;16.60;;;;;;;;;;5080753;28;20513;-67
2022/08/27 00:31:51;;;;;;;17.75;15.95;;;;;;;;;;5068248;28;20032;-67
2022/08/27 00:34:17;;;;;;;19.40;17.52;;;;;;;;;;5067784;28;20036;-67
2022/08/27 00:36:44;;;;;;;20.27;18.00;;;;;;;;;;5069848;28;20408;-67
2022/08/27 00:39:10;;;;;;;21.17;18.98;;;;;;;;;;5068740;28;20556;-67
2022/08/27 00:41:37;;;;;;;18.55;16.77;;;;;;;;;;5078160;28;20094;-67
2022/08/27 00:44:05;;;;;;;18.75;16.95;;;;;;;;;;5073892;28;20032;-67
2022/08/27 00:46:39;;;;;;;19.20;16.92;;;;;;;;;;5080849;28;20036;-67
2022/08/27 00:49:09;;;;;;;18.80;16.50;;;;;;;;;;5084449;28;20071;-67
2022/08/27 00:51:37;;;;;;;19.98;16.77;;;;;;;;;;5077480;28;20056;-67
2022/08/27 00:54:03;;;;;;;18.95;16.80;;;;;;;;;;5070651;28;20060;-66
2022/08/27 00:56:34;;;;;;;19.05;17.15;;;;;;;;;;5071891;28;20068;-67
2022/08/27 00:59:02;;;;;;;19.55;17.63;;;;;;;;;;5071468;28;20518;-67
2022/08/27 01:01:30;;;;;;;18.80;16.60;;;;;;;;;;5071511;28;20068;-67
2022/08/27 01:04:02;;;;;;;19.13;15.75;;;;;;;;;;5071695;28;20032;-67
2022/08/27 01:06:32;;;;;;;18.15;16.35;;;;;;;;;;5071566;28;20459;-67
2022/08/27 01:09:07;;;;;;;18.75;17.02;;;;;;;;;;5071516;28;20029;-67
2022/08/27 01:11:32;;;;;;;18.13;16.33;;;;;;;;;;5071332;28;20029;-67
2022/08/27 01:13:58;;;;;;;19.75;17.65;;;;;;;;;;5069859;28;20030;-67
2022/08/27 01:16:28;;;;;;;18.85;17.02;;;;;;;;;;5069065;28;20024;-67
2022/08/27 01:18:56;;;;;;;19.50;17.40;;;;;;;;;;5073589;28;20522;-67
2022/08/27 01:21:42;;;;;;;18.73;16.83;;;;;;;;;;5084194;28;20245;-67
2022/08/27 01:24:29;;;;;;;18.13;16.48;;;;;;;;;;5075245;28;20398;-66
2022/08/27 01:26:56;;;;;;;20.88;17.75;;;;;;;;;;5069510;28;20036;-67
2022/08/27 01:29:22;;;;;;;21.52;18.05;;;;;;;;;;5064649;28;20131;-67
2022/08/27 01:31:48;;;;;;;19.73;17.73;;;;;;;;;;5074110;28;20079;-67
2022/08/27 01:34:14;;;;;;;18.38;16.58;;;;;;;;;;5070307;28;20447;-67
2022/08/27 01:36:40;;;;;;;20.95;18.83;;;;;;;;;;5069359;28;20036;-67
2022/08/27 01:39:06;;;;;;;21.10;18.25;;;;;;;;;;5068236;28;20131;-67
2022/08/27 01:41:31;;;;;;;21.33;17.60;;;;;;;;;;5078569;28;20570;-67
2022/08/27 01:43:57;;;;;;;19.42;17.42;;;;;;;;;;5088544;28;20066;-67
2022/08/27 01:46:24;;;;;;;19.48;17.50;;;;;;;;;;5091095;28;20032;-66
2022/08/27 01:48:50;;;;;;;18.63;16.65;;;;;;;;;;5091434;28;20045;-66
2022/08/27 01:51:16;;;;;;;20.35;18.23;;;;;;;;;;5082591;28;20106;-66
2022/08/27 01:53:42;;;;;;;22.45;18.52;;;;;;;;;;5066180;28;20716;-67
2022/08/27 01:56:07;;;;;;;24.33;17.80;;;;;;;;;;5077515;28;20033;-67
2022/08/27 01:58:33;;;;;;;21.33;17.58;;;;;;;;;;5070438;28;20466;-67
2022/08/27 02:01:03;;;;;;;21.13;18.58;;;;;;;;;;5070266;28;20037;-67
2022/08/27 02:03:29;;;;;;;22.30;17.90;;;;;;;;;;5070380;28;20510;-67
2022/08/27 02:05:55;;;;;;;21.05;16.98;;;;;;;;;;5069552;28;20032;-67
2022/08/27 02:08:21;;;;;;;19.90;17.05;;;;;;;;;;5070895;28;20036;-67
2022/08/27 02:10:47;;;;;;;19.48;17.50;;;;;;;;;;5070378;28;20032;-67
2022/08/27 02:13:13;;;;;;;18.27;16.40;;;;;;;;;;5070361;28;20040;-66
2022/08/27 02:15:40;;;;;;;21.58;17.23;;;;;;;;;;5070261;28;20036;-67
2022/08/27 02:18:07;;;;;;;19.17;17.15;;;;;;;;;;5064101;28;20380;-67
2022/08/27 02:20:34;;;;;;;19.67;17.60;;;;;;;;;;5069520;28;20024;-67
2022/08/27 02:23:00;;;;;;;20.23;18.17;;;;;;;;;;5071690;28;20032;-67
2022/08/27 02:25:27;;;;;;;18.98;17.08;;;;;;;;;;5073405;28;20120;-67
2022/08/27 02:27:58;;;;;;;17.95;16.08;;;;;;;;;;5076531;28;20494;-67
2022/08/27 02:30:25;;;;;;;17.35;15.63;;;;;;;;;;5069280;28;20062;-67
2022/08/27 02:32:51;;;;;;;18.77;16.77;;;;;;;;;;5080046;28;20029;-67
2022/08/27 02:35:20;;;;;;;18.95;16.92;;;;;;;;;;5078516;28;20024;-67
2022/08/27 02:37:46;;;;;;;20.40;18.30;;;;;;;;;;5066166;28;20545;-67
2022/08/27 02:40:16;;;;;;;19.40;17.40;;;;;;;;;;5069459;28;20115;-68
2022/08/27 02:42:43;;;;;;;18.85;16.20;;;;;;;;;;5067324;28;20033;-68
2022/08/27 02:45:09;;;;;;;17.30;15.60;;;;;;;;;;5070335;28;20071;-68
2022/08/27 02:47:34;;;;;;;20.17;16.55;;;;;;;;;;5073702;28;20120;-67
2022/08/27 02:50:00;;;;;;;20.30;18.17;;;;;;;;;;5070823;28;20042;-67
2022/08/27 02:52:28;;;;;;;18.95;16.95;;;;;;;;;;5067885;28;20040;-67
2022/08/27 02:54:54;;;;;;;18.05;16.15;;;;;;;;;;5070013;28;20036;-67
2022/08/27 02:57:21;;;;;;;21.75;17.60;;;;;;;;;;5078896;28;20508;-67
2022/08/27 02:59:47;;;;;;;19.42;17.10;;;;;;;;;;5068801;28;20044;-67
2022/08/27 03:02:13;;;;;;;19.80;17.80;;;;;;;;;;5066418;28;20033;-67
2022/08/27 03:04:39;;;;;;;23.02;18.52;;;;;;;;;;5079201;28;20040;-67
2022/08/27 03:07:05;;;;;;;19.60;17.70;;;;;;;;;;5074946;28;20114;-67
2022/08/27 03:09:31;;;;;;;20.25;18.15;;;;;;;;;;5065421;28;20436;-67
2022/08/27 03:11:57;;;;;;;19.08;17.17;;;;;;;;;;5068333;28;20028;-67
2022/08/27 03:14:22;;;;;;;18.80;16.90;;;;;;;;;;5077889;28;20039;-67
2022/08/27 03:16:48;;;;;;;24.52;18.85;;;;;;;;;;5080041;28;20039;-67
2022/08/27 03:19:14;;;;;;;20.52;17.85;;;;;;;;;;5072447;28;20032;-67
2022/08/27 03:21:39;;;;;;;19.95;17.65;;;;;;;;;;5068569;28;20033;-67
2022/08/27 03:24:05;;;;;;;20.10;17.33;;;;;;;;;;5068868;28;20047;-67
2022/08/27 03:26:31;;;;;;;19.08;17.27;;;;;;;;;;5068779;28;20111;-67
2022/08/27 03:28:58;;;;;;;19.92;17.50;;;;;;;;;;5068890;28;20040;-67
2022/08/27 03:31:25;;;;;;;22.95;18.88;;;;;;;;;;5068807;28;20111;-67
2022/08/27 03:33:56;;;;;;;20.30;18.20;;;;;;;;;;5068912;28;20047;-67
2022/08/27 03:36:22;;;;;;;20.92;18.73;;;;;;;;;;5068803;28;20070;-67
2022/08/27 03:38:48;;;;;;;21.50;19.23;;;;;;;;;;5068646;28;20036;-67
2022/08/27 03:41:14;;;;;;;22.10;19.23;;;;;;;;;;5068373;28;20052;-67
2022/08/27 03:43:40;;;;;;;23.98;21.50;;;;;;;;;;5067135;28;20051;-67
2022/08/27 03:46:06;;;;;;;25.25;21.98;;;;;;;;;;5072757;28;20122;-67
2022/08/27 03:48:33;;;;;;;26.92;23.05;;;;;;;;;;5083366;28;20488;-67
2022/08/27 03:51:03;;;;;;;28.45;24.38;;;;;;;;;;5066578;28;20024;-67
2022/08/27 03:53:29;;;;;;;34.50;27.50;;;;;;;;;;5072451;28;20067;-67
2022/08/27 03:55:55;;;;;;;34.17;27.13;;;;;;;;;;5081173;28;20071;-67
2022/08/27 03:58:21;;;;;;;30.98;25.98;;;;;;;;;;5076911;28;20029;-67
2022/08/27 04:00:47;;;;;;;32.53;26.52;;;;;;;;;;5066053;28;20040;-67
2022/08/27 04:03:13;;;;;;;34.03;26.40;;;;;;;;;;5070713;28;20077;-67
2022/08/27 04:05:41;;;;;;;31.48;24.73;;;;;;;;;;5080243;28;20214;-67
2022/08/27 04:08:10;;;;;;;37.30;28.17;;;;;;;;;;5078243;28;20032;-67
2022/08/27 04:10:40;;;;;;;34.35;26.40;;;;;;;;;;5076613;28;20075;-67
2022/08/27 04:13:05;;;;;;;;;;;;;;;;;;5082397;28;20032;-67
2022/08/27 04:15:31;;;;;;;36.47;26.23;;;;;;;;;;5076421;28;19920;-66
2022/08/27 04:17:56;;;;;;;39.60;27.60;;;;;;;;;;5074769;28;20443;-66
2022/08/27 04:20:23;;;;;;;34.15;27.50;;;;;;;;;;5068949;28;20036;-66
2022/08/27 04:22:49;;;;;;;35.97;28.77;;;;;;;;;;5069218;28;20076;-66
2022/08/27 04:25:14;;;;;;;41.42;28.85;;;;;;;;;;5072558;28;20109;-66
2022/08/27 04:27:40;;;;;;;35.78;28.27;;;;;;;;;;5069720;28;20123;-66
2022/08/27 04:30:08;;;;;;;33.92;28.67;;;;;;;;;;5073039;28;20037;-66
2022/08/27 04:32:34;;;;;;;36.33;30.02;;;;;;;;;;5067421;28;20107;-66
2022/08/27 04:35:00;;;;;;;37.00;28.45;;;;;;;;;;5058514;28;20033;-66
2022/08/27 04:37:31;;;;;;;36.20;29.17;;;;;;;;;;5048128;28;20047;-67
2022/08/27 04:39:58;;;;;;;32.35;27.00;;;;;;;;;;5077991;28;20036;-66
2022/08/27 04:42:24;;;;;;;32.92;27.05;;;;;;;;;;5065770;28;20033;-67
2022/08/27 04:44:51;;;;;;;29.98;25.67;;;;;;;;;;5070067;28;20506;-66
2022/08/27 04:47:17;;;;;;;32.75;26.88;;;;;;;;;;5074615;28;20025;-66
2022/08/27 04:49:42;;;;;;;33.80;27.70;;;;;;;;;;5075474;28;20496;-66
2022/08/27 04:52:08;;;;;;;40.05;28.48;;;;;;;;;;5065724;28;20128;-66
2022/08/27 04:54:34;;;;;;;38.88;28.30;;;;;;;;;;5064642;28;20021;-66
2022/08/27 04:57:02;;;;;;;34.10;29.08;;;;;;;;;;5062253;28;20028;-66
2022/08/27 04:59:28;;;;;;;37.13;28.95;;;;;;;;;;5080142;28;20063;-66
2022/08/27 05:01:54;;;;;;;34.67;29.13;;;;;;;;;;5087573;28;20043;-66
2022/08/27 05:04:19;;;;;;;37.92;29.52;;;;;;;;;;5087755;28;20040;-66
2022/08/27 05:06:47;;;;;;;38.60;29.13;;;;;;;;;;5088022;28;20044;-66
2022/08/27 05:09:13;;;;;;;42.58;30.42;;;;;;;;;;5075718;28;20046;-66
2022/08/27 05:11:40;;;;;;;40.67;31.08;;;;;;;;;;5067488;28;20028;-66
2022/08/27 05:14:08;;;;;;;39.05;30.88;;;;;;;;;;5067661;28;20120;-66
2022/08/27 05:16:35;;;;;;;40.47;32.37;;;;;;;;;;5066390;28;20041;-66
2022/08/27 05:19:02;;;;;;;44.45;34.50;;;;;;;;;;5066888;28;20708;-66
2022/08/27 05:21:31;;;;;;;42.75;31.42;;;;;;;;;;5067281;28;20040;-66
2022/08/27 05:23:58;;;;;;;47.35;30.83;;;;;;;;;;5067393;28;20042;-66
2022/08/27 05:26:26;;;;;;;42.20;31.05;;;;;;;;;;5066708;28;20046;-66
2022/08/27 05:28:52;;;;;;;44.40;32.75;;;;;;;;;;5076172;28;20040;-66
2022/08/27 05:31:19;;;;;;;47.90;34.70;;;;;;;;;;5086229;28;20028;-66
2022/08/27 05:33:46;;;;;;;45.17;33.50;;;;;;;;;;5077980;28;20028;-66
2022/08/27 05:36:19;;;;;;;45.63;33.80;;;;;;;;;;5065900;28;20036;-66
2022/08/27 05:38:45;;;;;;;45.33;33.25;;;;;;;;;;5070884;28;20072;-67
2022/08/27 05:41:14;;;;;;;50.42;35.35;;;;;;;;;;5079300;28;20064;-67
2022/08/27 05:43:41;;;;;;;44.90;33.75;;;;;;;;;;5070680;28;20037;-66
2022/08/27 05:46:10;;;;;;;41.65;32.05;;;;;;;;;;5070805;28;20036;-66
2022/08/27 05:48:36;;;;;;;;;;;;;;;;;;5071267;28;20403;-66
2022/08/27 05:51:08;;;;;;;47.03;35.85;;;;;;;;;;5068988;28;19916;-66
2022/08/27 05:53:34;;;;;;;52.55;37.05;;;;;;;;;;5075380;28;20421;-66
2022/08/27 05:55:59;;;;;;;52.35;37.63;;;;;;;;;;5084799;28;20127;-66
2022/08/27 06:01:09;;;;;;;53.53;37.85;;;;;;;;;;5066573;28;20032;-66
2022/08/27 06:03:36;;;;;;;46.97;36.63;;;;;;;;;;5073793;28;20043;-67
2022/08/27 06:06:05;;;;;;;48.40;37.53;;;;;;;;;;5077288;28;20032;-67
2022/08/27 06:08:31;;;;;;;47.42;35.13;;;;;;;;;;5070225;28;20041;-66
2022/08/27 06:11:00;;;;;;;52.28;37.60;;;;;;;;;;5065790;28;20366;-66
2022/08/27 06:13:26;;;;;;;50.88;35.35;;;;;;;;;;5065728;28;20024;-67
2022/08/27 06:16:00;;;;;;;49.35;34.20;;;;;;;;;;5066253;28;20119;-66
2022/08/27 06:18:26;;;;;;;47.47;34.35;;;;;;;;;;5069145;28;20311;-66
2022/08/27 06:20:52;;;;;;;46.20;36.20;;;;;;;;;;5067100;28;20341;-66
2022/08/27 06:23:18;;;;;;;49.88;36.55;;;;;;;;;;5067584;28;20116;-66
2022/08/27 06:25:43;;;;;;;46.08;34.25;;;;;;;;;;5068908;28;20119;-67
2022/08/27 06:28:09;;;;;;;43.88;35.30;;;;;;;;;;5065797;28;20040;-67
2022/08/27 06:30:35;;;;;;;43.25;33.35;;;;;;;;;;5067408;28;20371;-66
2022/08/27 06:33:00;;;;;;;50.42;34.42;;;;;;;;;;5067363;28;20037;-67
2022/08/27 06:35:26;;;;;;;54.08;36.25;;;;;;;;;;5068726;28;20036;-67
2022/08/27 06:37:51;;;;;;;46.63;33.95;;;;;;;;;;5068521;28;20559;-66
2022/08/27 06:40:17;;;;;;;41.13;32.47;;;;;;;;;;5069114;28;20396;-67
2022/08/27 06:42:43;;;;;;;47.90;36.60;;;;;;;;;;5066518;28;20043;-67
2022/08/27 06:45:09;;;;;;;44.42;34.28;;;;;;;;;;5065887;28;20475;-67
2022/08/27 06:47:35;;;;;;;45.80;34.20;;;;;;;;;;5065880;28;20055;-66
2022/08/27 06:50:01;;;;;;;45.55;33.80;;;;;;;;;;5064074;28;20036;-67
2022/08/27 06:52:26;;;;;;;46.40;33.58;;;;;;;;;;5063320;28;20090;-67
2022/08/27 06:54:52;;;;;;;45.08;34.42;;;;;;;;;;5064827;28;20056;-67
2022/08/27 06:57:18;;;;;;;46.97;32.95;;;;;;;;;;5066684;28;20119;-67
2022/08/27 06:59:44;;;;;;;43.45;34.08;;;;;;;;;;5066525;28;20170;-66
2022/08/27 07:02:09;;;;;;;44.42;34.50;;;;;;;;;;5063633;28;20028;-67
2022/08/27 07:04:35;;;;;;;47.08;35.78;;;;;;;;;;5067811;28;20047;-66
2022/08/27 07:07:01;;;;;;;49.72;36.17;;;;;;;;;;5064366;28;20025;-67
2022/08/27 07:09:29;;;;;;;48.80;35.80;;;;;;;;;;5064972;28;20408;-67
2022/08/27 07:11:56;;;;;;;50.65;36.03;;;;;;;;;;5064524;28;20028;-67
2022/08/27 07:14:21;;;;;;;49.72;36.13;;;;;;;;;;5066577;28;20037;-66
2022/08/27 07:16:48;;;;;;;47.03;34.67;;;;;;;;;;5065111;28;20435;-66
2022/08/27 07:19:14;;;;;;;46.95;35.60;;;;;;;;;;5067140;28;20475;-66
2022/08/27 07:21:39;;;;;;;46.67;35.10;;;;;;;;;;5064594;28;20036;-67
2022/08/27 07:24:06;;;;;;;46.92;34.50;;;;;;;;;;5064619;28;20024;-67
2022/08/27 07:26:35;;;;;;;46.38;34.78;;;;;;;;;;5064449;28;20502;-67
2022/08/27 07:29:03;;;;;;;53.47;35.53;;;;;;;;;;5068706;28;20040;-67
2022/08/27 07:31:29;;;;;;;46.95;34.90;;;;;;;;;;5068591;28;20024;-67
2022/08/27 07:33:54;;;;;;;42.70;34.88;;;;;;;;;;5062751;28;20407;-67
2022/08/27 07:36:22;;;;;;;50.42;37.85;;;;;;;;;;5068813;28;20032;-67
2022/08/27 07:38:49;;;;;;;53.47;40.42;;;;;;;;;;5064528;28;20078;-67
2022/08/27 07:41:14;;;;;;;48.65;39.08;;;;;;;;;;5066657;28;20115;-66
2022/08/27 07:46:25;;;;;;;52.10;38.08;;;;;;;;;;5065428;28;20025;-67
2022/08/27 07:48:51;;;;;;;52.17;36.97;;;;;;;;;;5067040;28;20057;-67
2022/08/27 07:51:20;;;;;;;52.72;37.55;;;;;;;;;;5063594;28;20107;-66
2022/08/27 07:53:46;;;;;;;49.13;37.03;;;;;;;;;;5060315;28;20046;-67
2022/08/27 07:56:12;;;;;;;48.58;34.85;;;;;;;;;;5067680;28;20112;-67
2022/08/27 07:58:39;;;;;;;45.22;33.38;;;;;;;;;;5064648;28;20466;-66
2022/08/27 08:01:05;;;;;;;47.63;35.85;;;;;;;;;;5065877;28;20471;-67
2022/08/27 08:03:31;;;;;;;41.25;32.63;;;;;;;;;;5066245;28;20115;-67
2022/08/27 08:06:02;;;;;;;41.78;33.72;;;;;;;;;;5065002;28;20039;-67
2022/08/27 08:08:28;;;;;;;40.63;31.13;;;;;;;;;;5068779;28;20047;-67
2022/08/27 08:10:56;;;;;;;43.92;32.90;;;;;;;;;;5067680;28;20476;-67
2022/08/27 08:13:21;;;;;;;42.47;34.97;;;;;;;;;;5062139;28;20039;-67
2022/08/27 08:15:48;;;;;;;45.67;33.53;;;;;;;;;;5061461;28;20374;-67
2022/08/27 08:18:14;;;;;;;42.45;28.73;;;;;;;;;;5067449;28;20036;-67
2022/08/27 08:20:40;;;;;;;41.40;32.97;;;;;;;;;;5070372;28;20132;-67
2022/08/27 08:23:07;;;;;;;42.42;31.98;;;;;;;;;;5063109;28;20588;-67
2022/08/27 08:25:33;;;;;;;42.42;36.40;;;;;;;;;;5060946;28;20116;-67
2022/08/27 08:27:59;;;;;;;44.90;34.47;;;;;;;;;;5065739;28;20438;-67
2022/08/27 08:30:25;;;;;;;41.42;34.90;;;;;;;;;;5063740;28;20060;-67
2022/08/27 08:32:51;;;;;;;43.60;34.58;;;;;;;;;;5066218;28;20040;-67
2022/08/27 08:35:16;;;;;;;45.47;35.70;;;;;;;;;;5060167;28;20028;-67
2022/08/27 08:37:43;;;;;;;45.38;33.35;;;;;;;;;;5045265;28;20028;-67
2022/08/27 08:40:14;;;;;;;44.78;35.08;;;;;;;;;;5066041;28;20062;-67
2022/08/27 08:42:50;;;;;;;50.42;34.70;;;;;;;;;;5062845;28;20056;-67
2022/08/27 08:45:20;;;;;;;48.35;34.20;;;;;;;;;;5063647;28;20112;-67
2022/08/27 08:47:51;;;;;;;49.08;35.72;;;;;;;;;;5065395;28;20036;-67
2022/08/27 08:50:24;;;;;;;51.95;37.30;;;;;;;;;;5064186;28;20036;-67
2022/08/27 08:52:58;;;;;;;49.33;35.88;;;;;;;;;;5061048;28;20132;-67
2022/08/27 08:55:46;;;;;;;47.63;36.58;;;;;;;;;;5067297;28;20499;-66
2022/08/27 08:58:33;;;;;;;51.85;35.50;;;;;;;;;;5065065;28;20025;-67
2022/08/27 09:01:02;;;;;;;46.22;37.17;;;;;;;;;;5061326;28;20068;-67
2022/08/27 09:03:28;;;;;;;49.40;34.72;;;;;;;;;;5064562;28;20111;-67
2022/08/27 09:06:02;;;;;;;43.40;32.67;;;;;;;;;;5066528;28;20024;-67
2022/08/27 09:08:32;;;;;;;38.78;30.60;;;;;;;;;;5063334;28;20032;-67
2022/08/27 09:11:26;;;;;;;38.25;29.67;;;;;;;;;;5063023;28;20039;-67
2022/08/27 09:13:58;;;;;;;36.85;27.83;;;;;;;;;;5064991;28;20086;-67
2022/08/27 09:16:24;;;;;;;34.67;28.40;;;;;;;;;;5066984;28;20070;-67
2022/08/27 09:18:50;;;;;;;33.70;28.13;;;;;;;;;;5075776;28;20040;-67
2022/08/27 09:21:31;;;;;;;35.38;28.10;;;;;;;;;;5069518;28;20475;-68
2022/08/27 09:24:23;;;;;;;34.47;27.15;;;;;;;;;;5069837;28;20039;-68
2022/08/27 09:26:48;;;;;;;33.08;27.85;;;;;;;;;;5024255;28;20042;-67
2022/08/27 09:29:18;;;;;;;30.70;25.52;;;;;;;;;;5027625;28;20068;-67
2022/08/27 09:31:59;;;;;;;32.38;25.67;;;;;;;;;;5020599;28;20041;-67
2022/08/27 09:34:33;;;;;;;31.05;26.05;;;;;;;;;;5025957;28;20120;-67
2022/08/27 09:37:20;;;;;;;27.52;24.55;;;;;;;;;;5026612;28;20045;-67
2022/08/27 09:39:47;;;;;;;28.80;24.48;;;;;;;;;;5024046;28;20033;-67
2022/08/27 09:42:47;;;;;;;27.27;24.30;;;;;;;;;;5022584;28;20045;-67
2022/08/27 09:45:16;;;;;;;27.05;24.25;;;;;;;;;;4983648;28;20045;-68
2022/08/27 09:48:08;;;;;;;23.88;21.48;;;;;;;;;;4986441;28;20069;-67
2022/08/27 09:50:56;;;;;;;24.48;22.02;;;;;;;;;;4983098;28;20424;-67
2022/08/27 09:53:43;;;;;;;22.95;20.55;;;;;;;;;;4986272;28;20045;-67
2022/08/27 09:56:19;;;;;;;17.75;16.08;;;;;;;;;;4986005;28;20525;-67
2022/08/27 09:58:54;;;;;;;17.95;16.45;;;;;;;;;;4986721;28;20054;-67
2022/08/27 10:01:26;;;;;;;16.02;14.73;;;;;;;;;;4986993;28;20074;-67
2022/08/27 10:04:10;;;;;;;17.60;16.10;;;;;;;;;;5012071;28;20057;-67
2022/08/27 10:06:36;;;;;;;16.60;15.20;;;;;;;;;;5027329;28;20045;-67
2022/08/27 10:09:14;;;;;;;19.67;17.90;;;;;;;;;;5026733;28;20049;-67
2022/08/27 10:11:47;;;;;;;21.98;19.98;;;;;;;;;;5026189;28;20087;-67
2022/08/27 10:14:24;;;;;;;24.35;21.90;;;;;;;;;;5026314;28;20051;-67
2022/08/27 10:17:24;;;;;;;23.55;21.35;;;;;;;;;;5027287;28;20038;-67
2022/08/27 10:20:01;;;;;;;23.55;21.17;;;;;;;;;;5024652;28;20038;-66
2022/08/27 10:22:44;;;;;;;24.70;21.98;;;;;;;;;;5062194;28;20041;-67
2022/08/27 10:25:33;;;;;;;26.90;24.00;;;;;;;;;;5067043;28;20037;-66
2022/08/27 10:28:14;;;;;;;24.58;22.08;;;;;;;;;;5065961;28;20036;-67
2022/08/27 10:30:54;;;;;;;24.65;22.17;;;;;;;;;;5065146;28;20029;-66
2022/08/27 10:33:23;;;;;;;24.75;22.00;;;;;;;;;;5068987;28;20496;-66
2022/08/27 10:36:11;;;;;;;23.58;21.33;;;;;;;;;;5063440;28;20087;-66
2022/08/27 10:38:38;;;;;;;23.80;21.33;;;;;;;;;;5063296;28;20041;-66
2022/08/27 10:41:12;;;;;;;24.65;22.13;;;;;;;;;;5066113;28;20415;-67
2022/08/27 10:44:04;;;;;;;23.83;21.52;;;;;;;;;;5062108;28;20033;-67
2022/08/27 10:47:18;;;;;;;26.23;22.55;;;;;;;;;;5069474;28;20108;-67
2022/08/27 10:50:02;;;;;;;27.33;24.48;;;;;;;;;;5056342;28;20043;-67
2022/08/27 10:52:41;;;;;;;31.23;26.80;;;;;;;;;;5070055;28;20028;-66
2022/08/27 10:55:18;;;;;;;30.88;25.63;;;;;;;;;;5075755;28;20028;-66
2022/08/27 10:57:59;;;;;;;29.27;25.85;;;;;;;;;;5073842;28;20040;-66
2022/08/27 11:00:44;;;;;;;29.05;25.98;;;;;;;;;;5072129;28;20069;-67
2022/08/27 11:03:17;;;;;;;27.48;23.85;;;;;;;;;;5069245;28;20036;-67
2022/08/27 11:05:46;;;;;;;26.58;23.85;;;;;;;;;;5063363;28;20040;-67
2022/08/27 11:08:22;;;;;;;26.98;24.08;;;;;;;;;;5060254;28;20079;-67
2022/08/27 11:10:52;;;;;;;31.92;27.20;;;;;;;;;;5063880;28;20450;-67
2022/08/27 11:13:31;;;;;;;30.55;27.23;;;;;;;;;;5062049;28;20074;-67
2022/08/27 11:15:59;;;;;;;30.15;27.02;;;;;;;;;;5063361;28;20047;-67
2022/08/27 11:18:28;;;;;;;35.35;28.48;;;;;;;;;;5062086;28;20047;-67
2022/08/27 11:21:11;;;;;;;31.27;27.00;;;;;;;;;;5065740;28;20067;-67
2022/08/27 11:23:46;;;;;;;32.15;26.70;;;;;;;;;;5060417;28;20045;-67
2022/08/27 11:26:12;;;;;;;33.75;28.23;;;;;;;;;;5062907;28;20036;-67
2022/08/27 11:28:43;;;;;;;31.83;27.65;;;;;;;;;;5064117;28;20086;-67
2022/08/27 11:31:31;;;;;;;30.35;26.45;;;;;;;;;;5060281;28;20543;-67
2022/08/27 11:34:13;;;;;;;29.95;25.67;;;;;;;;;;5053579;28;20226;-67
2022/08/27 11:36:54;;;;;;;31.42;26.27;;;;;;;;;;5061869;28;20036;-67
2022/08/27 11:39:45;;;;;;;29.90;25.55;;;;;;;;;;5058405;28;20075;-67
2022/08/27 11:42:22;;;;;;;28.60;25.42;;;;;;;;;;5063338;28;20120;-67
2022/08/27 11:44:54;;;;;;;29.52;26.40;;;;;;;;;;5063898;28;20040;-67
2022/08/27 11:47:24;;;;;;;35.88;28.77;;;;;;;;;;5060943;28;20159;-67
2022/08/27 11:49:54;;;;;;;40.80;31.45;;;;;;;;;;5063383;28;20139;-66
2022/08/27 11:52:24;;;;;;;38.88;30.77;;;;;;;;;;5062035;28;20043;-66
2022/08/27 11:55:11;;;;;;;38.13;29.75;;;;;;;;;;5062799;28;20044;-66
2022/08/27 11:57:37;;;;;;;36.08;28.25;;;;;;;;;;5065811;28;20040;-66
2022/08/27 12:00:29;;;;;;;39.30;30.48;;;;;;;;;;5065372;28;20043;-66
2022/08/27 12:03:02;;;;;;;36.97;30.60;;;;;;;;;;5059230;28;20044;-67
2022/08/27 12:05:43;;;;;;;39.75;31.95;;;;;;;;;;5071035;28;20028;-66
2022/08/27 12:08:20;;;;;;;42.80;32.08;;;;;;;;;;5060528;28;20047;-66
2022/08/27 12:11:11;;;;;;;41.83;33.92;;;;;;;;;;5063181;28;20032;-67
2022/08/27 12:13:39;;;;;;;42.03;34.03;;;;;;;;;;5060709;28;20119;-66
2022/08/27 12:16:17;;;;;;;38.40;31.67;;;;;;;;;;5060813;28;20064;-66
2022/08/27 12:19:01;;;;;;;40.75;31.33;;;;;;;;;;5065732;28;20226;-66
2022/08/27 12:22:04;;;;;;;41.65;31.50;;;;;;;;;;5060629;28;20139;-67
2022/08/27 12:24:35;;;;;;;37.17;30.67;;;;;;;;;;5058966;28;20266;-66
2022/08/27 12:27:19;;;;;;;41.78;34.13;;;;;;;;;;5062166;28;20036;-66
2022/08/27 12:29:58;;;;;;;41.75;35.13;;;;;;;;;;5059428;28;20033;-67
2022/08/27 12:32:31;;;;;;;;;;;;;;;;;;5063142;28;20094;-66
2022/08/27 12:35:04;;;;;;;44.50;34.75;;;;;;;;;;5058781;28;19916;-66
2022/08/27 12:37:37;;;;;;;43.72;34.60;;;;;;;;;;5060404;28;20028;-66
2022/08/27 12:40:16;;;;;;;40.35;31.90;;;;;;;;;;5065005;28;20046;-66
2022/08/27 12:42:42;;;;;;;41.83;32.85;;;;;;;;;;5062018;28;20044;-67
2022/08/27 12:45:20;;;;;;;36.25;31.45;;;;;;;;;;5062365;28;20119;-67
2022/08/27 12:47:47;;;;;;;33.20;28.48;;;;;;;;;;5059214;28;20115;-67
2022/08/27 12:50:12;;;;;;;20.10;18.13;;;;;;;;;;5062872;28;20078;-67
2022/08/27 12:52:56;;;;;;;12.57;11.65;;;;;;;;;;5067358;28;20052;-66
2022/08/27 12:56:01;;;;;;;12.38;11.32;;;;;;;;;;5068463;28;20032;-66
2022/08/27 12:58:36;;;;;;;12.50;11.60;;;;;;;;;;5061908;28;20155;-67
2022/08/27 13:01:20;;;;;;;11.70;10.90;;;;;;;;;;5062900;28;20047;-66
2022/08/27 13:03:54;;;;;;;11.38;10.57;;;;;;;;;;5068302;28;20040;-66
2022/08/27 13:06:22;;;;;;;11.82;10.90;;;;;;;;;;5063090;28;20040;-66
2022/08/27 13:08:55;;;;;;;11.27;10.52;;;;;;;;;;5066723;28;20093;-66
2022/08/27 13:11:24;;;;;;;11.25;10.32;;;;;;;;;;5067458;28;20078;-66
2022/08/27 13:13:51;;;;;;;11.98;11.18;;;;;;;;;;5062520;28;20049;-66
2022/08/27 13:16:19;;;;;;;11.55;10.65;;;;;;;;;;5075696;28;20089;-66
2022/08/27 13:18:49;;;;;;;11.20;10.40;;;;;;;;;;5068907;28;20052;-66
2022/08/27 13:21:27;;;;;;;11.10;10.40;;;;;;;;;;5061652;28;20662;-66
2022/08/27 13:23:59;;;;;;;9.13;8.43;;;;;;;;;;5065491;28;21498;-66
2022/08/27 13:26:32;;;;;;;10.63;9.80;;;;;;;;;;5063568;28;20032;-66
2022/08/27 13:28:59;;;;;;;10.68;9.98;;;;;;;;;;5063716;28;20456;-66
2022/08/27 13:31:27;;;;;;;11.55;10.75;;;;;;;;;;5062988;28;20590;-66
2022/08/27 13:33:57;;;;;;;11.15;10.45;;;;;;;;;;5067919;28;20113;-66
2022/08/27 13:36:51;;;;;;;11.27;10.45;;;;;;;;;;5082866;28;20038;-66
2022/08/27 13:39:17;;;;;;;11.70;10.80;;;;;;;;;;5067851;28;20365;-66
2022/08/27 13:41:46;;;;;;;11.85;11.05;;;;;;;;;;5064365;28;20376;-66
2022/08/27 13:44:18;;;;;;;12.02;11.10;;;;;;;;;;5066212;28;20044;-66
2022/08/27 13:46:49;;;;;;;12.18;11.27;;;;;;;;;;5065791;28;20131;-66
2022/08/27 13:49:21;;;;;;;12.30;10.85;;;;;;;;;;5064272;28;20024;-66
2022/08/27 13:51:48;;;;;;;10.98;10.18;;;;;;;;;;5066210;28;20043;-66
2022/08/27 13:54:16;;;;;;;10.93;10.13;;;;;;;;;;5067603;28;20036;-66
2022/08/27 13:56:50;;;;;;;11.68;10.77;;;;;;;;;;5067744;28;20145;-66
2022/08/27 13:59:18;;;;;;;11.50;10.70;;;;;;;;;;5063255;28;20404;-66
2022/08/27 14:02:17;;;;;;;12.60;11.70;;;;;;;;;;5063953;28;20036;-66
2022/08/27 14:05:11;;;;;;;12.68;11.65;;;;;;;;;;5066174;28;20451;-66
2022/08/27 14:07:49;;;;;;;12.25;11.45;;;;;;;;;;5067978;28;20051;-67
2022/08/27 14:10:17;;;;;;;11.98;11.07;;;;;;;;;;5065759;28;20040;-66
2022/08/27 14:12:55;;;;;;;12.30;11.40;;;;;;;;;;5066754;28;20021;-66
2022/08/27 14:15:30;;;;;;;12.65;11.75;;;;;;;;;;5070161;28;20033;-66
2022/08/27 14:17:56;;;;;;;12.02;11.15;;;;;;;;;;5071527;28;20039;-66
2022/08/27 14:20:23;;;;;;;12.48;11.45;;;;;;;;;;5074891;28;20529;-66
2022/08/27 14:22:49;;;;;;;11.68;10.77;;;;;;;;;;5071571;28;20495;-66
2022/08/27 14:25:16;;;;;;;12.20;11.23;;;;;;;;;;5069839;28;20086;-66
2022/08/27 14:27:43;;;;;;;11.88;10.88;;;;;;;;;;5068338;28;20042;-66
2022/08/27 14:30:14;;;;;;;12.10;11.20;;;;;;;;;;5064316;28;20040;-66
2022/08/27 14:32:41;;;;;;;12.48;11.57;;;;;;;;;;5067735;28;20036;-66
2022/08/27 14:35:09;;;;;;;12.40;11.50;;;;;;;;;;5068923;28;20043;-66
2022/08/27 14:37:40;;;;;;;12.90;11.95;;;;;;;;;;5067111;28;20051;-66
2022/08/27 14:40:06;;;;;;;13.55;12.48;;;;;;;;;;5067132;28;20379;-66
2022/08/27 14:42:33;;;;;;;14.02;13.02;;;;;;;;;;5067089;28;20115;-66